sensor_id;sensor_type;location;lat;lon;timestamp;temperature;humidity
5415;DHT22;2730;51.512;7.504;2022-07-23T05:00:33;15.70;99.90
5415;DHT22;2730;51.512;7.504;2022-07-23T05:03:00;15.60;99.90
5415;DHT22;2730;51.512;7.504;2022-07-23T05:05:27;15.70;99.90
5415;DHT22;2730;51.512;7.504;2022-07-23T05:07:53;15.70;99.90
5415;DHT22;2730;51.512;7.504;2022-07-23T05:10:20;15.80;99.90
5415;DHT22;2730;51.512;7.504;2022-07-23T05:12:47;15.80;99.90
5415;DHT22;2730;51.512;7.504;2022-07-23T05:15:14;15.90;99.90
5415;DHT22;2730;51.512;7.504;2022-07-23T05:17:42;15.90;99.90
5415;DHT22;2730;51.512;7.504;2022-07-23T05:20:10;16.00;99.90
5415;DHT22;2730;51.512;7.504;2022-07-23T05:22:37;16.00;99.90
5415;DHT22;2730;51.512;7.504;2022-07-23T05:25:04;16.10;99.90
5415;DHT22;2730;51.512;7.504;2022-07-23T05:27:31;16.20;99.90
5415;DHT22;2730;51.512;7.504;2022-07-23T05:29:58;16.20;99.90
5415;DHT22;2730;51.512;7.504;2022-07-23T05:32:25;16.30;99.90
5415;DHT22;2730;51.512;7.504;2022-07-23T05:34:53;16.30;99.90
5415;DHT22;2730;51.512;7.504;2022-07-23T05:37:20;16.40;99.90
5415;DHT22;2730;51.512;7.504;2022-07-23T05:39:47;16.50;99.90
5415;DHT22;2730;51.512;7.504;2022-07-23T05:42:15;16.70;99.90
5415;DHT22;2730;51.512;7.504;2022-07-23T05:44:42;16.80;99.90
5415;DHT22;2730;51.512;7.504;2022-07-23T05:47:12;16.90;99.90
5415;DHT22;2730;51.512;7.504;2022-07-23T05:49:41;16.80;99.90
5415;DHT22;2730;51.512;7.504;2022-07-23T05:52:10;16.90;99.90
5415;DHT22;2730;51.512;7.504;2022-07-23T05:54:37;17.00;99.90
5415;DHT22;2730;51.512;7.504;2022-07-23T05:57:04;17.10;99.90
5415;DHT22;2730;51.512;7.504;2022-07-23T05:59:31;17.20;99.90
5415;DHT22;2730;51.512;7.504;2022-07-23T06:01:58;17.30;99.90
5415;DHT22;2730;51.512;7.504;2022-07-23T06:04:25;17.30;99.90
5415;DHT22;2730;51.512;7.504;2022-07-23T06:06:52;17.40;99.90
5415;DHT22;2730;51.512;7.504;2022-07-23T06:09:21;17.40;99.90
5415;DHT22;2730;51.512;7.504;2022-07-23T06:11:48;17.50;99.90
5415;DHT22;2730;51.512;7.504;2022-07-23T06:14:14;17.50;99.90
5415;DHT22;2730;51.512;7.504;2022-07-23T06:16:41;17.60;99.90
5415;DHT22;2730;51.512;7.504;2022-07-23T06:19:08;17.60;99.90
5415;DHT22;2730;51.512;7.504;2022-07-23T06:21:35;17.60;99.90
5415;DHT22;2730;51.512;7.504;2022-07-23T06:24:02;17.70;99.90
5415;DHT22;2730;51.512;7.504;2022-07-23T06:26:30;17.60;99.90
5415;DHT22;2730;51.512;7.504;2022-07-23T06:28:57;17.60;99.90
5415;DHT22;2730;51.512;7.504;2022-07-23T06:31:24;17.70;99.90
5415;DHT22;2730;51.512;7.504;2022-07-23T06:33:51;17.90;99.90
5415;DHT22;2730;51.512;7.504;2022-07-23T06:36:18;18.00;99.90
5415;DHT22;2730;51.512;7.504;2022-07-23T06:38:45;18.20;99.90
5415;DHT22;2730;51.512;7.504;2022-07-23T06:41:12;18.30;99.90
5415;DHT22;2730;51.512;7.504;2022-07-23T06:43:40;18.50;99.90
5415;DHT22;2730;51.512;7.504;2022-07-23T06:46:07;18.80;99.90
5415;DHT22;2730;51.512;7.504;2022-07-23T06:48:34;19.10;99.90
5415;DHT22;2730;51.512;7.504;2022-07-23T06:51:01;19.20;99.90
5415;DHT22;2730;51.512;7.504;2022-07-23T06:53:28;19.10;99.90
5415;DHT22;2730;51.512;7.504;2022-07-23T06:55:55;19.20;99.90
5415;DHT22;2730;51.512;7.504;2022-07-23T06:58:22;19.20;99.90
5415;DHT22;2730;51.512;7.504;2022-07-23T07:00:50;19.20;99.90
5415;DHT22;2730;51.512;7.504;2022-07-23T07:03:17;19.20;99.90
5415;DHT22;2730;51.512;7.504;2022-07-23T07:05:44;19.70;99.90
5415;DHT22;2730;51.512;7.504;2022-07-23T07:08:11;20.10;99.90
5415;DHT22;2730;51.512;7.504;2022-07-23T07:10:38;20.40;99.90
5415;DHT22;2730;51.512;7.504;2022-07-23T07:13:05;20.50;99.90
5415;DHT22;2730;51.512;7.504;2022-07-23T07:15:32;20.70;99.90
5415;DHT22;2730;51.512;7.504;2022-07-23T07:18:00;20.30;99.90
5415;DHT22;2730;51.512;7.504;2022-07-23T07:20:27;20.10;99.90
5415;DHT22;2730;51.512;7.504;2022-07-23T07:22:54;20.00;99.90
5415;DHT22;2730;51.512;7.504;2022-07-23T07:25:21;20.00;99.90
5415;DHT22;2730;51.512;7.504;2022-07-23T07:27:48;19.90;99.90
5415;DHT22;2730;51.512;7.504;2022-07-23T07:30:15;19.70;99.90
5415;DHT22;2730;51.512;7.504;2022-07-23T07:32:42;19.40;99.90
5415;DHT22;2730;51.512;7.504;2022-07-23T07:35:10;19.80;99.90
5415;DHT22;2730;51.512;7.504;2022-07-23T07:37:37;21.30;99.90
5415;DHT22;2730;51.512;7.504;2022-07-23T07:40:04;22.00;99.90
5415;DHT22;2730;51.512;7.504;2022-07-23T07:42:31;22.60;99.90
5415;DHT22;2730;51.512;7.504;2022-07-23T07:44:58;22.70;99.90
5415;DHT22;2730;51.512;7.504;2022-07-23T07:47:25;22.40;99.90
5415;DHT22;2730;51.512;7.504;2022-07-23T07:49:52;22.70;99.90
5415;DHT22;2730;51.512;7.504;2022-07-23T07:52:20;23.50;99.90
5415;DHT22;2730;51.512;7.504;2022-07-23T07:54:47;24.30;99.90
5415;DHT22;2730;51.512;7.504;2022-07-23T07:57:14;24.10;99.90
5415;DHT22;2730;51.512;7.504;2022-07-23T07:59:41;23.10;99.90
5415;DHT22;2730;51.512;7.504;2022-07-23T08:02:08;22.40;99.90
5415;DHT22;2730;51.512;7.504;2022-07-23T08:04:35;21.80;99.90
5415;DHT22;2730;51.512;7.504;2022-07-23T08:07:01;21.10;99.90
5415;DHT22;2730;51.512;7.504;2022-07-23T08:09:30;21.40;99.90
5415;DHT22;2730;51.512;7.504;2022-07-23T08:11:57;23.00;99.90
5415;DHT22;2730;51.512;7.504;2022-07-23T08:14:24;24.70;99.90
5415;DHT22;2730;51.512;7.504;2022-07-23T08:16:51;25.90;99.90
5415;DHT22;2730;51.512;7.504;2022-07-23T08:19:17;27.00;99.90
5415;DHT22;2730;51.512;7.504;2022-07-23T08:21:44;27.60;99.90
5415;DHT22;2730;51.512;7.504;2022-07-23T08:24:11;25.70;99.90
5415;DHT22;2730;51.512;7.504;2022-07-23T08:26:39;24.10;99.90
5415;DHT22;2730;51.512;7.504;2022-07-23T08:29:06;23.90;99.90
5415;DHT22;2730;51.512;7.504;2022-07-23T08:31:33;24.80;99.90
5415;DHT22;2730;51.512;7.504;2022-07-23T08:34:00;24.30;99.90
5415;DHT22;2730;51.512;7.504;2022-07-23T08:36:28;25.00;99.90
5415;DHT22;2730;51.512;7.504;2022-07-23T08:38:57;25.90;99.90
5415;DHT22;2730;51.512;7.504;2022-07-23T08:41:24;26.40;99.90
5415;DHT22;2730;51.512;7.504;2022-07-23T08:43:53;26.00;99.90
5415;DHT22;2730;51.512;7.504;2022-07-23T08:46:20;24.90;99.90
5415;DHT22;2730;51.512;7.504;2022-07-23T08:48:48;23.80;99.90
5415;DHT22;2730;51.512;7.504;2022-07-23T08:51:15;22.90;99.90
5415;DHT22;2730;51.512;7.504;2022-07-23T08:53:43;22.60;99.90
5415;DHT22;2730;51.512;7.504;2022-07-23T08:56:11;22.90;99.90
5415;DHT22;2730;51.512;7.504;2022-07-23T08:58:38;24.10;99.90
5415;DHT22;2730;51.512;7.504;2022-07-23T09:01:06;25.50;99.90
5415;DHT22;2730;51.512;7.504;2022-07-23T09:03:35;26.90;99.90
5415;DHT22;2730;51.512;7.504;2022-07-23T09:06:04;27.30;99.90
5415;DHT22;2730;51.512;7.504;2022-07-23T09:08:36;26.50;99.90
5415;DHT22;2730;51.512;7.504;2022-07-23T09:11:04;26.90;99.90
5415;DHT22;2730;51.512;7.504;2022-07-23T09:13:34;25.90;99.90
5415;DHT22;2730;51.512;7.504;2022-07-23T09:16:04;25.00;99.90
5415;DHT22;2730;51.512;7.504;2022-07-23T09:18:34;25.60;99.90
5415;DHT22;2730;51.512;7.504;2022-07-23T09:21:22;26.80;99.90
5415;DHT22;2730;51.512;7.504;2022-07-23T09:23:57;27.70;99.90
5415;DHT22;2730;51.512;7.504;2022-07-23T09:26:33;28.70;99.90
5415;DHT22;2730;51.512;7.504;2022-07-23T09:29:08;29.30;97.90
5415;DHT22;2730;51.512;7.504;2022-07-23T09:31:47;29.40;96.90
5415;DHT22;2730;51.512;7.504;2022-07-23T09:34:19;30.50;95.70
5415;DHT22;2730;51.512;7.504;2022-07-23T09:36:46;29.80;93.60
5415;DHT22;2730;51.512;7.504;2022-07-23T09:39:14;29.50;94.80
5415;DHT22;2730;51.512;7.504;2022-07-23T09:41:46;30.30;94.10
5415;DHT22;2730;51.512;7.504;2022-07-23T09:44:15;29.40;93.40
5415;DHT22;2730;51.512;7.504;2022-07-23T09:46:44;27.40;95.70
5415;DHT22;2730;51.512;7.504;2022-07-23T09:49:14;26.50;97.20
5415;DHT22;2730;51.512;7.504;2022-07-23T09:51:51;25.60;97.80
5415;DHT22;2730;51.512;7.504;2022-07-23T09:54:30;26.00;98.10
5415;DHT22;2730;51.512;7.504;2022-07-23T09:57:00;27.00;98.10
5415;DHT22;2730;51.512;7.504;2022-07-23T09:59:29;26.50;97.70
5415;DHT22;2730;51.512;7.504;2022-07-23T10:01:59;26.70;97.70
5415;DHT22;2730;51.512;7.504;2022-07-23T10:04:27;27.00;96.50
5415;DHT22;2730;51.512;7.504;2022-07-23T10:06:58;27.00;95.80
5415;DHT22;2730;51.512;7.504;2022-07-23T10:09:29;27.40;95.90
5415;DHT22;2730;51.512;7.504;2022-07-23T10:11:57;27.40;95.50
5415;DHT22;2730;51.512;7.504;2022-07-23T10:14:29;27.90;94.60
5415;DHT22;2730;51.512;7.504;2022-07-23T10:16:58;28.60;94.90
5415;DHT22;2730;51.512;7.504;2022-07-23T10:19:24;28.80;95.00
5415;DHT22;2730;51.512;7.504;2022-07-23T10:21:57;29.20;94.40
5415;DHT22;2730;51.512;7.504;2022-07-23T10:24:36;29.80;92.90
5415;DHT22;2730;51.512;7.504;2022-07-23T10:30:10;29.00;91.80
5415;DHT22;2730;51.512;7.504;2022-07-23T10:32:49;29.50;91.70
5415;DHT22;2730;51.512;7.504;2022-07-23T10:35:33;29.40;91.10
5415;DHT22;2730;51.512;7.504;2022-07-23T10:38:11;28.60;92.20
5415;DHT22;2730;51.512;7.504;2022-07-23T10:40:53;27.50;92.70
5415;DHT22;2730;51.512;7.504;2022-07-23T10:43:21;27.20;93.60
5415;DHT22;2730;51.512;7.504;2022-07-23T10:45:48;26.70;93.60
5415;DHT22;2730;51.512;7.504;2022-07-23T10:48:17;26.70;94.10
5415;DHT22;2730;51.512;7.504;2022-07-23T10:51:08;27.60;93.30
5415;DHT22;2730;51.512;7.504;2022-07-23T10:53:55;28.50;93.30
5415;DHT22;2730;51.512;7.504;2022-07-23T11:02:34;28.70;91.70
5415;DHT22;2730;51.512;7.504;2022-07-23T11:05:05;28.60;91.50
5415;DHT22;2730;51.512;7.504;2022-07-23T11:07:32;27.30;92.40
5415;DHT22;2730;51.512;7.504;2022-07-23T11:10:01;26.60;93.60
5415;DHT22;2730;51.512;7.504;2022-07-23T11:12:33;26.30;93.30
5415;DHT22;2730;51.512;7.504;2022-07-23T11:15:03;25.90;93.80
5415;DHT22;2730;51.512;7.504;2022-07-23T11:17:30;25.50;94.10
5415;DHT22;2730;51.512;7.504;2022-07-23T11:20:17;25.30;94.10
5415;DHT22;2730;51.512;7.504;2022-07-23T11:22:49;25.50;94.70
5415;DHT22;2730;51.512;7.504;2022-07-23T11:25:35;25.70;95.40
5415;DHT22;2730;51.512;7.504;2022-07-23T11:28:10;26.10;94.80
5415;DHT22;2730;51.512;7.504;2022-07-23T11:30:39;26.20;95.10
5415;DHT22;2730;51.512;7.504;2022-07-23T11:33:18;25.70;95.00
5415;DHT22;2730;51.512;7.504;2022-07-23T11:35:47;25.20;95.00
5415;DHT22;2730;51.512;7.504;2022-07-23T11:38:16;24.70;95.60
5415;DHT22;2730;51.512;7.504;2022-07-23T11:40:46;24.80;96.20
5415;DHT22;2730;51.512;7.504;2022-07-23T11:43:13;24.80;95.80
5415;DHT22;2730;51.512;7.504;2022-07-23T11:45:42;24.90;95.90
5415;DHT22;2730;51.512;7.504;2022-07-23T11:48:16;24.60;95.50
5415;DHT22;2730;51.512;7.504;2022-07-23T11:50:43;24.50;96.00
5415;DHT22;2730;51.512;7.504;2022-07-23T11:53:10;24.20;96.30
5415;DHT22;2730;51.512;7.504;2022-07-23T11:55:37;24.40;97.00
5415;DHT22;2730;51.512;7.504;2022-07-23T11:58:07;24.70;96.80
5415;DHT22;2730;51.512;7.504;2022-07-23T12:00:33;24.80;96.30
5415;DHT22;2730;51.512;7.504;2022-07-23T12:03:02;24.90;96.70
5415;DHT22;2730;51.512;7.504;2022-07-23T12:05:32;24.80;96.80
5415;DHT22;2730;51.512;7.504;2022-07-23T12:08:00;25.00;96.40
5415;DHT22;2730;51.512;7.504;2022-07-23T12:10:28;24.60;96.10
5415;DHT22;2730;51.512;7.504;2022-07-23T12:12:58;24.70;96.70
5415;DHT22;2730;51.512;7.504;2022-07-23T12:15:28;24.70;96.10
5415;DHT22;2730;51.512;7.504;2022-07-23T12:17:57;24.60;96.10
5415;DHT22;2730;51.512;7.504;2022-07-23T12:20:26;24.60;95.80
5415;DHT22;2730;51.512;7.504;2022-07-23T12:22:57;24.50;96.10
5415;DHT22;2730;51.512;7.504;2022-07-23T12:25:27;24.70;96.00
5415;DHT22;2730;51.512;7.504;2022-07-23T12:28:04;24.80;95.60
5415;DHT22;2730;51.512;7.504;2022-07-23T12:30:34;24.70;95.40
5415;DHT22;2730;51.512;7.504;2022-07-23T12:33:04;24.60;95.80
5415;DHT22;2730;51.512;7.504;2022-07-23T12:35:34;24.50;96.20
5415;DHT22;2730;51.512;7.504;2022-07-23T12:38:03;24.70;95.80
5415;DHT22;2730;51.512;7.504;2022-07-23T12:40:31;25.00;95.80
5415;DHT22;2730;51.512;7.504;2022-07-23T12:43:01;25.00;95.50
5415;DHT22;2730;51.512;7.504;2022-07-23T12:45:42;25.20;95.30
5415;DHT22;2730;51.512;7.504;2022-07-23T12:48:16;25.00;95.60
5415;DHT22;2730;51.512;7.504;2022-07-23T12:50:49;24.80;95.50
5415;DHT22;2730;51.512;7.504;2022-07-23T12:53:17;24.80;96.20
5415;DHT22;2730;51.512;7.504;2022-07-23T12:55:46;24.90;95.00
5415;DHT22;2730;51.512;7.504;2022-07-23T12:58:15;24.60;95.90
5415;DHT22;2730;51.512;7.504;2022-07-23T13:01:02;24.40;95.50
5415;DHT22;2730;51.512;7.504;2022-07-23T13:03:40;24.60;95.40
5415;DHT22;2730;51.512;7.504;2022-07-23T13:06:08;24.60;95.20
5415;DHT22;2730;51.512;7.504;2022-07-23T13:08:37;24.50;95.50
5415;DHT22;2730;51.512;7.504;2022-07-23T13:11:06;24.50;95.80
5415;DHT22;2730;51.512;7.504;2022-07-23T13:13:34;24.50;95.90
5415;DHT22;2730;51.512;7.504;2022-07-23T13:16:03;24.40;95.90
5415;DHT22;2730;51.512;7.504;2022-07-23T13:18:30;24.50;95.60
5415;DHT22;2730;51.512;7.504;2022-07-23T13:20:57;24.70;95.20
5415;DHT22;2730;51.512;7.504;2022-07-23T13:23:24;24.80;95.20
5415;DHT22;2730;51.512;7.504;2022-07-23T13:25:52;24.60;95.20
5415;DHT22;2730;51.512;7.504;2022-07-23T13:28:20;24.40;94.70
5415;DHT22;2730;51.512;7.504;2022-07-23T13:30:48;24.40;95.20
5415;DHT22;2730;51.512;7.504;2022-07-23T13:33:18;24.70;95.60
5415;DHT22;2730;51.512;7.504;2022-07-23T13:35:46;24.80;95.30
5415;DHT22;2730;51.512;7.504;2022-07-23T13:38:13;25.00;95.40
5415;DHT22;2730;51.512;7.504;2022-07-23T13:40:42;25.00;94.60
5415;DHT22;2730;51.512;7.504;2022-07-23T13:43:10;25.00;94.40
5415;DHT22;2730;51.512;7.504;2022-07-23T13:45:38;25.20;94.40
5415;DHT22;2730;51.512;7.504;2022-07-23T13:48:06;25.20;94.70
5415;DHT22;2730;51.512;7.504;2022-07-23T13:50:34;25.30;94.40
5415;DHT22;2730;51.512;7.504;2022-07-23T13:53:02;25.20;94.10
5415;DHT22;2730;51.512;7.504;2022-07-23T13:55:30;25.00;93.80
5415;DHT22;2730;51.512;7.504;2022-07-23T13:57:57;24.90;94.20
5415;DHT22;2730;51.512;7.504;2022-07-23T14:00:24;25.00;94.20
5415;DHT22;2730;51.512;7.504;2022-07-23T14:02:52;25.10;94.40
5415;DHT22;2730;51.512;7.504;2022-07-23T14:05:19;25.40;93.50
5415;DHT22;2730;51.512;7.504;2022-07-23T14:07:47;25.30;93.10
5415;DHT22;2730;51.512;7.504;2022-07-23T14:10:16;25.20;93.60
5415;DHT22;2730;51.512;7.504;2022-07-23T14:12:43;25.00;93.20
5415;DHT22;2730;51.512;7.504;2022-07-23T14:15:10;24.70;93.70
5415;DHT22;2730;51.512;7.504;2022-07-23T14:17:39;24.60;94.20
5415;DHT22;2730;51.512;7.504;2022-07-23T14:20:06;24.70;94.10
5415;DHT22;2730;51.512;7.504;2022-07-23T14:22:33;24.90;94.30
5415;DHT22;2730;51.512;7.504;2022-07-23T14:25:02;25.10;94.00
5415;DHT22;2730;51.512;7.504;2022-07-23T14:27:29;25.20;93.00
5415;DHT22;2730;51.512;7.504;2022-07-23T14:29:56;25.20;93.20
5415;DHT22;2730;51.512;7.504;2022-07-23T14:32:24;25.30;93.30
5415;DHT22;2730;51.512;7.504;2022-07-23T14:34:51;25.10;93.30
5415;DHT22;2730;51.512;7.504;2022-07-23T14:37:18;24.80;93.60
5415;DHT22;2730;51.512;7.504;2022-07-23T14:39:45;24.60;93.60
5415;DHT22;2730;51.512;7.504;2022-07-23T14:42:14;24.50;93.90
5415;DHT22;2730;51.512;7.504;2022-07-23T14:44:41;24.40;93.60
5415;DHT22;2730;51.512;7.504;2022-07-23T14:47:08;24.40;93.60
5415;DHT22;2730;51.512;7.504;2022-07-23T14:49:35;24.40;93.70
5415;DHT22;2730;51.512;7.504;2022-07-23T14:52:03;24.60;93.70
5415;DHT22;2730;51.512;7.504;2022-07-23T14:54:30;24.60;93.40
5415;DHT22;2730;51.512;7.504;2022-07-23T14:56:58;24.60;93.10
5415;DHT22;2730;51.512;7.504;2022-07-23T14:59:27;24.70;93.20
5415;DHT22;2730;51.512;7.504;2022-07-23T15:01:54;24.80;93.20
5415;DHT22;2730;51.512;7.504;2022-07-23T15:04:21;24.70;93.70
5415;DHT22;2730;51.512;7.504;2022-07-23T15:06:48;24.50;93.60
5415;DHT22;2730;51.512;7.504;2022-07-23T15:09:15;24.40;93.80
5415;DHT22;2730;51.512;7.504;2022-07-23T15:11:41;24.40;93.80
5415;DHT22;2730;51.512;7.504;2022-07-23T15:14:09;24.40;93.90
5415;DHT22;2730;51.512;7.504;2022-07-23T15:16:37;24.50;94.50
5415;DHT22;2730;51.512;7.504;2022-07-23T15:19:04;24.60;94.00
5415;DHT22;2730;51.512;7.504;2022-07-23T15:21:31;24.60;93.60
5415;DHT22;2730;51.512;7.504;2022-07-23T15:23:58;24.80;93.60
5415;DHT22;2730;51.512;7.504;2022-07-23T15:26:25;24.90;93.30
5415;DHT22;2730;51.512;7.504;2022-07-23T15:28:52;24.80;93.60
5415;DHT22;2730;51.512;7.504;2022-07-23T15:31:19;24.50;93.30
5415;DHT22;2730;51.512;7.504;2022-07-23T15:33:47;24.40;93.90
5415;DHT22;2730;51.512;7.504;2022-07-23T15:36:16;24.60;93.80
5415;DHT22;2730;51.512;7.504;2022-07-23T15:38:43;24.80;93.80
5415;DHT22;2730;51.512;7.504;2022-07-23T15:41:10;25.00;93.40
5415;DHT22;2730;51.512;7.504;2022-07-23T15:43:36;25.20;93.30
5415;DHT22;2730;51.512;7.504;2022-07-23T15:46:04;25.40;93.30
5415;DHT22;2730;51.512;7.504;2022-07-23T15:48:31;25.10;93.30
5415;DHT22;2730;51.512;7.504;2022-07-23T15:51:01;25.10;93.70
5415;DHT22;2730;51.512;7.504;2022-07-23T15:53:28;25.10;93.50
5415;DHT22;2730;51.512;7.504;2022-07-23T15:55:55;25.00;93.20
5415;DHT22;2730;51.512;7.504;2022-07-23T15:58:22;25.00;93.70
5415;DHT22;2730;51.512;7.504;2022-07-23T16:00:49;25.00;93.70
5415;DHT22;2730;51.512;7.504;2022-07-23T16:03:15;25.20;93.90
5415;DHT22;2730;51.512;7.504;2022-07-23T16:05:42;25.00;93.20
5415;DHT22;2730;51.512;7.504;2022-07-23T16:08:11;24.80;93.10
5415;DHT22;2730;51.512;7.504;2022-07-23T16:10:38;24.70;93.10
5415;DHT22;2730;51.512;7.504;2022-07-23T16:13:04;24.80;93.50
5415;DHT22;2730;51.512;7.504;2022-07-23T16:15:31;24.80;93.20
5415;DHT22;2730;51.512;7.504;2022-07-23T16:17:58;24.90;93.40
5415;DHT22;2730;51.512;7.504;2022-07-23T16:20:25;25.10;93.30
5415;DHT22;2730;51.512;7.504;2022-07-23T16:22:52;25.30;93.50
5415;DHT22;2730;51.512;7.504;2022-07-23T16:25:20;25.40;94.00
5415;DHT22;2730;51.512;7.504;2022-07-23T16:27:48;25.50;93.00
5415;DHT22;2730;51.512;7.504;2022-07-23T16:30:15;25.40;93.20
5415;DHT22;2730;51.512;7.504;2022-07-23T16:32:41;25.40;93.10
5415;DHT22;2730;51.512;7.504;2022-07-23T16:35:09;25.20;93.30
5415;DHT22;2730;51.512;7.504;2022-07-23T16:37:36;25.20;93.40
5415;DHT22;2730;51.512;7.504;2022-07-23T16:40:04;25.00;93.40
5415;DHT22;2730;51.512;7.504;2022-07-23T16:42:32;24.90;93.60
5415;DHT22;2730;51.512;7.504;2022-07-23T16:44:59;24.90;94.00
5415;DHT22;2730;51.512;7.504;2022-07-23T16:47:26;24.80;93.90
5415;DHT22;2730;51.512;7.504;2022-07-23T16:49:53;24.90;93.50
5415;DHT22;2730;51.512;7.504;2022-07-23T16:52:21;24.80;93.00
5415;DHT22;2730;51.512;7.504;2022-07-23T16:54:48;24.70;93.40
5415;DHT22;2730;51.512;7.504;2022-07-23T16:57:15;24.60;93.60
5415;DHT22;2730;51.512;7.504;2022-07-23T16:59:43;24.70;93.80
5415;DHT22;2730;51.512;7.504;2022-07-23T17:02:10;24.70;94.00
5415;DHT22;2730;51.512;7.504;2022-07-23T17:04:37;24.70;94.00
5415;DHT22;2730;51.512;7.504;2022-07-23T17:07:04;24.60;93.70
5415;DHT22;2730;51.512;7.504;2022-07-23T17:09:32;24.50;93.60
5415;DHT22;2730;51.512;7.504;2022-07-23T17:12:00;24.40;93.80
5415;DHT22;2730;51.512;7.504;2022-07-23T17:14:27;24.30;94.00
5415;DHT22;2730;51.512;7.504;2022-07-23T17:16:56;24.20;94.20
5415;DHT22;2730;51.512;7.504;2022-07-23T17:19:23;24.10;94.40
5415;DHT22;2730;51.512;7.504;2022-07-23T17:21:50;24.20;94.70
5415;DHT22;2730;51.512;7.504;2022-07-23T17:24:17;24.10;94.30
5415;DHT22;2730;51.512;7.504;2022-07-23T17:26:44;24.10;94.50
5415;DHT22;2730;51.512;7.504;2022-07-23T17:31:40;24.20;95.30
5415;DHT22;2730;51.512;7.504;2022-07-23T17:34:08;24.20;94.10
5415;DHT22;2730;51.512;7.504;2022-07-23T17:36:35;24.10;94.30
5415;DHT22;2730;51.512;7.504;2022-07-23T17:39:03;24.10;94.60
5415;DHT22;2730;51.512;7.504;2022-07-23T17:41:30;24.20;94.70
5415;DHT22;2730;51.512;7.504;2022-07-23T17:43:57;24.30;94.80
5415;DHT22;2730;51.512;7.504;2022-07-23T17:46:25;24.40;94.80
5415;DHT22;2730;51.512;7.504;2022-07-23T17:48:52;24.40;94.50
5415;DHT22;2730;51.512;7.504;2022-07-23T17:51:20;24.40;94.80
5415;DHT22;2730;51.512;7.504;2022-07-23T17:53:47;24.20;94.40
5415;DHT22;2730;51.512;7.504;2022-07-23T17:56:14;24.10;94.60
5415;DHT22;2730;51.512;7.504;2022-07-23T17:58:41;24.10;94.80
5415;DHT22;2730;51.512;7.504;2022-07-23T18:01:08;24.00;94.60
5415;DHT22;2730;51.512;7.504;2022-07-23T18:03:34;24.00;94.90
5415;DHT22;2730;51.512;7.504;2022-07-23T18:06:02;23.90;94.60
5415;DHT22;2730;51.512;7.504;2022-07-23T18:08:31;23.80;94.70
5415;DHT22;2730;51.512;7.504;2022-07-23T18:10:57;23.80;95.10
5415;DHT22;2730;51.512;7.504;2022-07-23T18:13:24;23.70;95.20
5415;DHT22;2730;51.512;7.504;2022-07-23T18:15:51;23.70;95.80
5415;DHT22;2730;51.512;7.504;2022-07-23T18:18:18;23.70;95.50
5415;DHT22;2730;51.512;7.504;2022-07-23T18:20:45;23.60;95.20
5415;DHT22;2730;51.512;7.504;2022-07-23T18:23:13;23.50;95.30
5415;DHT22;2730;51.512;7.504;2022-07-23T18:25:41;23.40;95.60
5415;DHT22;2730;51.512;7.504;2022-07-23T18:28:08;23.40;95.60
5415;DHT22;2730;51.512;7.504;2022-07-23T18:30:35;23.40;95.80
5415;DHT22;2730;51.512;7.504;2022-07-23T18:33:02;23.30;96.00
5415;DHT22;2730;51.512;7.504;2022-07-23T18:35:29;23.30;96.00
5415;DHT22;2730;51.512;7.504;2022-07-23T18:37:55;23.30;96.10
5415;DHT22;2730;51.512;7.504;2022-07-23T18:40:22;23.10;96.20
5415;DHT22;2730;51.512;7.504;2022-07-23T18:42:50;23.10;96.30
5415;DHT22;2730;51.512;7.504;2022-07-23T18:45:20;23.10;96.40
5415;DHT22;2730;51.512;7.504;2022-07-23T18:47:47;23.00;96.30
5415;DHT22;2730;51.512;7.504;2022-07-23T18:50:14;23.00;96.40
5415;DHT22;2730;51.512;7.504;2022-07-23T18:52:41;22.90;96.50
5415;DHT22;2730;51.512;7.504;2022-07-23T18:55:08;22.90;96.70
5415;DHT22;2730;51.512;7.504;2022-07-23T18:57:35;22.80;97.20
5415;DHT22;2730;51.512;7.504;2022-07-23T19:00:05;22.70;97.90
5415;DHT22;2730;51.512;7.504;2022-07-23T19:02:33;22.60;98.00
5415;DHT22;2730;51.512;7.504;2022-07-23T19:05:00;22.60;97.70
5415;DHT22;2730;51.512;7.504;2022-07-23T19:07:27;22.60;97.80
5415;DHT22;2730;51.512;7.504;2022-07-23T19:09:54;22.60;98.00
5415;DHT22;2730;51.512;7.504;2022-07-23T19:12:21;22.50;98.80
5415;DHT22;2730;51.512;7.504;2022-07-23T19:14:48;22.40;98.70
5415;DHT22;2730;51.512;7.504;2022-07-23T19:17:16;22.30;99.40
5415;DHT22;2730;51.512;7.504;2022-07-23T19:19:43;22.20;99.20
5415;DHT22;2730;51.512;7.504;2022-07-23T19:22:10;22.10;99.60
5415;DHT22;2730;51.512;7.504;2022-07-23T19:24:36;22.00;99.70
5415;DHT22;2730;51.512;7.504;2022-07-23T19:27:04;21.90;99.90
5415;DHT22;2730;51.512;7.504;2022-07-23T19:29:31;21.90;99.90
5415;DHT22;2730;51.512;7.504;2022-07-23T19:32:01;21.80;99.90
5415;DHT22;2730;51.512;7.504;2022-07-23T19:34:29;21.70;99.90
5415;DHT22;2730;51.512;7.504;2022-07-23T19:36:56;21.60;99.90
5415;DHT22;2730;51.512;7.504;2022-07-23T19:39:23;21.50;99.90
5415;DHT22;2730;51.512;7.504;2022-07-23T19:41:50;21.40;99.90
5415;DHT22;2730;51.512;7.504;2022-07-23T19:44:17;21.30;99.90
5415;DHT22;2730;51.512;7.504;2022-07-23T19:46:44;21.20;99.90
5415;DHT22;2730;51.512;7.504;2022-07-23T19:49:11;21.20;99.90
5415;DHT22;2730;51.512;7.504;2022-07-23T19:51:39;21.00;99.90
5415;DHT22;2730;51.512;7.504;2022-07-23T19:54:06;20.90;99.90
5415;DHT22;2730;51.512;7.504;2022-07-23T19:56:33;20.80;99.90
5415;DHT22;2730;51.512;7.504;2022-07-23T19:59:00;20.70;99.90
5415;DHT22;2730;51.512;7.504;2022-07-23T20:01:27;20.60;99.90
5415;DHT22;2730;51.512;7.504;2022-07-23T20:03:53;20.60;99.90
5415;DHT22;2730;51.512;7.504;2022-07-23T20:06:20;20.50;99.90
5415;DHT22;2730;51.512;7.504;2022-07-23T20:08:48;20.40;99.90
5415;DHT22;2730;51.512;7.504;2022-07-23T20:11:15;20.40;99.90
5415;DHT22;2730;51.512;7.504;2022-07-23T20:13:42;20.30;99.90
5415;DHT22;2730;51.512;7.504;2022-07-23T20:16:09;20.30;99.90
5415;DHT22;2730;51.512;7.504;2022-07-23T20:18:36;20.30;99.90
5415;DHT22;2730;51.512;7.504;2022-07-23T20:21:03;20.20;99.90
5415;DHT22;2730;51.512;7.504;2022-07-23T20:23:30;20.20;99.90
5415;DHT22;2730;51.512;7.504;2022-07-23T20:25:58;20.10;99.90
5415;DHT22;2730;51.512;7.504;2022-07-23T20:28:25;20.00;99.90
5415;DHT22;2730;51.512;7.504;2022-07-23T20:30:52;19.90;99.90
5415;DHT22;2730;51.512;7.504;2022-07-23T20:33:21;19.80;99.90
5415;DHT22;2730;51.512;7.504;2022-07-23T20:35:48;19.80;99.90
5415;DHT22;2730;51.512;7.504;2022-07-23T20:38:16;19.70;99.90
5415;DHT22;2730;51.512;7.504;2022-07-23T20:40:43;19.70;99.90
5415;DHT22;2730;51.512;7.504;2022-07-23T20:43:11;19.70;99.90
5415;DHT22;2730;51.512;7.504;2022-07-23T20:45:38;19.60;99.90
5415;DHT22;2730;51.512;7.504;2022-07-23T20:48:07;19.60;99.90
5415;DHT22;2730;51.512;7.504;2022-07-23T20:50:34;19.50;99.90
5415;DHT22;2730;51.512;7.504;2022-07-23T20:53:02;19.50;99.90
5415;DHT22;2730;51.512;7.504;2022-07-23T20:55:29;19.40;99.90
5415;DHT22;2730;51.512;7.504;2022-07-23T20:57:56;19.40;99.90
5415;DHT22;2730;51.512;7.504;2022-07-23T21:00:24;19.40;99.90
5415;DHT22;2730;51.512;7.504;2022-07-23T21:02:51;19.30;99.90
5415;DHT22;2730;51.512;7.504;2022-07-23T21:05:18;19.30;99.90
5415;DHT22;2730;51.512;7.504;2022-07-23T21:07:45;19.30;99.90
5415;DHT22;2730;51.512;7.504;2022-07-23T21:10:12;19.20;99.90
5415;DHT22;2730;51.512;7.504;2022-07-23T21:12:39;19.20;99.90
5415;DHT22;2730;51.512;7.504;2022-07-23T21:15:07;19.20;99.90
5415;DHT22;2730;51.512;7.504;2022-07-23T21:17:35;19.20;99.90
5415;DHT22;2730;51.512;7.504;2022-07-23T21:20:04;19.10;99.90